Huvudsida
METAR-TAF:

METAR-TAF

Flygplatser :

Splits flygplats

Split, Kroatien

latitud: 43-32N, longitud: 016-18E, höjd: 19 m

Aktuellt väderrapport

Denna rapport gjordes för 33 minuter sedan, klockan 09:00 UTC
Vind 6 kt från ost, varierande mellan ost/nordost och sydost
Temperatur 22°C
Fuktighet 57%
Tryck 1015 hPa
Sikt 10 km eller mer
Inga moln under 1 500 m eller inga cumulonimbus

METAR: LDSP 250900Z 10006KT 060V130 CAVOK 22/13 Q1015 NOSIG

Tid: 11:33 (09:33 UTC)

Väderprognos

Denna rapport gjordes för 4 timmar och 8 minuter sedan, klockan 05:25 UTC
Prognos gäller från 25 kl. 06 UTC till 26 kl. 06 UTC
Vind 2 kt varierande vindriktning
Sikt 10 km eller mer
Inga moln under 1 500 m eller inga cumulonimbus
Blir
från 25 kl. 10 UTC till 25 kl. 12 UTC
Vind 9 kt från sydväst
Blir
från 25 kl. 15 UTC till 25 kl. 17 UTC
Vind 2 kt varierande vindriktning

TAF: LDSP 250525Z 2506/2606 VRB02KT CAVOK TX24/2512Z TN15/2603Z BECMG 2510/2512 22009KT BECMG 2515/2517 VRB02KT

Aktuella väderrapporter och prognoser från 4000 flygplatser (METAR- och TAF-rapporter).

De tillgängliga stationerna syns som gula och röda prickar på kartan.

För musen över prickarna för att se namnen på stationerna.

Klicka sedan för att få väderrapporter och prognoser.

För att ändra kartan: Klicka på de gröna knapparna med ett svart kors på för att zooma in; den gröna knappen med ett streck på för att zooma ut; eller på de gröna pilarna för angränsande kartor.


METAR-TAF: